sensor_id;sensor_type;location;lat;lon;timestamp;pressure;altitude;pressure_sealevel;temperature;humidity
53647;BME280;39550;52.230;5.194;2023-02-23T00:01:18;101192.28;;;6.40;92.18
53647;BME280;39550;52.230;5.194;2023-02-23T00:03:46;101191.38;;;6.39;92.21
53647;BME280;39550;52.230;5.194;2023-02-23T00:06:13;101206.06;;;6.45;91.22
53647;BME280;39550;52.230;5.194;2023-02-23T00:08:39;101195.66;;;6.39;91.82
53647;BME280;39550;52.230;5.194;2023-02-23T00:11:08;101206.00;;;6.43;91.67
53647;BME280;39550;52.230;5.194;2023-02-23T00:13:35;101167.06;;;6.25;91.54
53647;BME280;39550;52.230;5.194;2023-02-23T00:16:22;101180.88;;;6.30;91.87
53647;BME280;39550;52.230;5.194;2023-02-23T00:18:53;101196.66;;;6.44;92.30
53647;BME280;39550;52.230;5.194;2023-02-23T00:21:24;101198.28;;;6.42;91.31
53647;BME280;39550;52.230;5.194;2023-02-23T00:24:04;101193.13;;;6.40;92.00
53647;BME280;39550;52.230;5.194;2023-02-23T00:26:32;101191.19;;;6.33;91.50
53647;BME280;39550;52.230;5.194;2023-02-23T00:29:00;101185.28;;;6.34;92.07
53647;BME280;39550;52.230;5.194;2023-02-23T00:31:26;101198.25;;;6.40;91.43
53647;BME280;39550;52.230;5.194;2023-02-23T00:33:53;101194.75;;;6.38;91.87
53647;BME280;39550;52.230;5.194;2023-02-23T00:36:21;101166.25;;;6.26;91.59
53647;BME280;39550;52.230;5.194;2023-02-23T00:38:47;101195.72;;;6.42;91.65
53647;BME280;39550;52.230;5.194;2023-02-23T00:41:17;101158.47;;;6.23;91.44
53647;BME280;39550;52.230;5.194;2023-02-23T00:43:48;101177.47;;;6.31;91.79
53647;BME280;39550;52.230;5.194;2023-02-23T00:46:17;101186.34;;;6.42;91.86
53647;BME280;39550;52.230;5.194;2023-02-23T00:48:45;101188.88;;;6.41;91.92
53647;BME280;39550;52.230;5.194;2023-02-23T00:51:11;101158.38;;;6.20;91.46
53647;BME280;39550;52.230;5.194;2023-02-23T00:53:36;101185.31;;;6.36;91.82
53647;BME280;39550;52.230;5.194;2023-02-23T00:56:06;101178.25;;;6.28;91.31
53647;BME280;39550;52.230;5.194;2023-02-23T00:58:32;101179.31;;;6.35;91.96
53647;BME280;39550;52.230;5.194;2023-02-23T01:00:57;101194.03;;;6.42;91.43
53647;BME280;39550;52.230;5.194;2023-02-23T01:03:28;101172.28;;;6.28;92.00
53647;BME280;39550;52.230;5.194;2023-02-23T01:05:57;101173.13;;;6.28;91.62
53647;BME280;39550;52.230;5.194;2023-02-23T01:08:23;101158.38;;;6.20;91.09
53647;BME280;39550;52.230;5.194;2023-02-23T01:10:49;101183.56;;;6.35;91.54
53647;BME280;39550;52.230;5.194;2023-02-23T01:13:20;101191.41;;;6.41;92.33
53647;BME280;39550;52.230;5.194;2023-02-23T01:15:46;101167.84;;;6.22;91.16
53647;BME280;39550;52.230;5.194;2023-02-23T01:18:15;101193.13;;;6.40;92.00
53647;BME280;39550;52.230;5.194;2023-02-23T01:20:42;101164.34;;;6.20;91.48
53647;BME280;39550;52.230;5.194;2023-02-23T01:23:09;101180.06;;;6.33;92.34
53647;BME280;39550;52.230;5.194;2023-02-23T01:25:34;101188.00;;;6.40;92.33
53647;BME280;39550;52.230;5.194;2023-02-23T01:28:00;101144.56;;;6.14;91.87
53647;BME280;39550;52.230;5.194;2023-02-23T01:30:26;101188.81;;;6.39;91.58
53647;BME280;39550;52.230;5.194;2023-02-23T01:32:51;101168.91;;;6.29;92.06
53647;BME280;39550;52.230;5.194;2023-02-23T01:35:17;101172.34;;;6.31;92.02
53647;BME280;39550;52.230;5.194;2023-02-23T01:37:42;101192.28;;;6.40;92.12
53647;BME280;39550;52.230;5.194;2023-02-23T01:40:13;101142.72;;;6.10;91.79
53647;BME280;39550;52.230;5.194;2023-02-23T01:42:41;101163.75;;;6.27;92.02
53647;BME280;39550;52.230;5.194;2023-02-23T01:45:22;101177.59;;;6.34;91.92
53647;BME280;39550;52.230;5.194;2023-02-23T01:47:49;101189.63;;;6.38;91.90
53647;BME280;39550;52.230;5.194;2023-02-23T01:50:16;101187.06;;;6.38;91.66
53647;BME280;39550;52.230;5.194;2023-02-23T01:52:43;101181.94;;;6.38;91.65
53647;BME280;39550;52.230;5.194;2023-02-23T01:55:10;101173.03;;;6.25;91.86
53647;BME280;39550;52.230;5.194;2023-02-23T01:57:38;101186.09;;;6.33;92.15
53647;BME280;39550;52.230;5.194;2023-02-23T02:00:05;101187.75;;;6.33;91.87
53647;BME280;39550;52.230;5.194;2023-02-23T02:02:39;101193.03;;;6.37;92.14
53647;BME280;39550;52.230;5.194;2023-02-23T02:05:05;101171.22;;;6.21;92.32
53647;BME280;39550;52.230;5.194;2023-02-23T02:07:41;101181.69;;;6.29;92.21
53647;BME280;39550;52.230;5.194;2023-02-23T02:10:10;101199.06;;;6.39;91.66
53647;BME280;39550;52.230;5.194;2023-02-23T02:12:36;101194.75;;;6.38;91.70
53647;BME280;39550;52.230;5.194;2023-02-23T02:15:04;101187.72;;;6.31;91.78
53647;BME280;39550;52.230;5.194;2023-02-23T02:26:17;101196.41;;;6.36;92.02
53647;BME280;39550;52.230;5.194;2023-02-23T02:39:44;101199.78;;;6.35;91.66
53647;BME280;39550;52.230;5.194;2023-02-23T02:50:16;101192.94;;;6.34;91.48
53647;BME280;39550;52.230;5.194;2023-02-23T02:52:58;101191.19;;;6.33;91.60
53647;BME280;39550;52.230;5.194;2023-02-23T02:55:31;101192.94;;;6.34;91.63
53647;BME280;39550;52.230;5.194;2023-02-23T02:58:00;101194.56;;;6.32;91.78
53647;BME280;39550;52.230;5.194;2023-02-23T03:00:35;101192.94;;;6.34;91.97
53647;BME280;39550;52.230;5.194;2023-02-23T03:03:45;101198.06;;;6.34;92.40
53647;BME280;39550;52.230;5.194;2023-02-23T03:06:42;101192.06;;;6.34;91.50
53647;BME280;39550;52.230;5.194;2023-02-23T03:09:42;101194.63;;;6.34;92.27
53647;BME280;39550;52.230;5.194;2023-02-23T03:12:40;101191.19;;;6.33;92.42
53647;BME280;39550;52.230;5.194;2023-02-23T03:27:53;101199.69;;;6.32;91.82
53647;BME280;39550;52.230;5.194;2023-02-23T03:30:58;101197.94;;;6.31;92.49
53647;BME280;39550;52.230;5.194;2023-02-23T03:33:58;101203.06;;;6.31;91.66
53647;BME280;39550;52.230;5.194;2023-02-23T03:36:50;101189.28;;;6.26;92.16
53647;BME280;39550;52.230;5.194;2023-02-23T03:39:41;101206.53;;;6.32;92.39
53647;BME280;39550;52.230;5.194;2023-02-23T03:42:29;101198.78;;;6.30;92.18
53647;BME280;39550;52.230;5.194;2023-02-23T03:45:17;101209.09;;;6.32;92.15
53647;BME280;39550;52.230;5.194;2023-02-23T03:48:04;101205.69;;;6.33;92.17
53647;BME280;39550;52.230;5.194;2023-02-23T03:50:53;101210.75;;;6.31;91.96
53647;BME280;39550;52.230;5.194;2023-02-23T03:53:46;101200.34;;;6.25;92.07
53647;BME280;39550;52.230;5.194;2023-02-23T03:56:32;101216.63;;;6.28;91.82
53647;BME280;39550;52.230;5.194;2023-02-23T03:59:19;101223.53;;;6.31;91.65
53647;BME280;39550;52.230;5.194;2023-02-23T04:02:05;101227.00;;;6.32;92.18
53647;BME280;39550;52.230;5.194;2023-02-23T04:04:43;101223.47;;;6.28;91.77
53647;BME280;39550;52.230;5.194;2023-02-23T04:07:30;101223.47;;;6.28;91.60
53647;BME280;39550;52.230;5.194;2023-02-23T04:10:14;101189.72;;;6.12;92.23
53647;BME280;39550;52.230;5.194;2023-02-23T04:13:25;101223.53;;;6.31;91.54
53647;BME280;39550;52.230;5.194;2023-02-23T04:15:55;101228.66;;;6.31;91.72
53647;BME280;39550;52.230;5.194;2023-02-23T04:18:29;101238.91;;;6.31;92.16
53647;BME280;39550;52.230;5.194;2023-02-23T04:20:56;101226.81;;;6.27;91.63
53647;BME280;39550;52.230;5.194;2023-02-23T04:23:22;101227.59;;;6.24;91.46
53647;BME280;39550;52.230;5.194;2023-02-23T04:25:49;101237.19;;;6.30;92.04
53647;BME280;39550;52.230;5.194;2023-02-23T04:28:14;101225.88;;;6.23;92.20
53647;BME280;39550;52.230;5.194;2023-02-23T04:30:40;101241.41;;;6.29;92.13
53647;BME280;39550;52.230;5.194;2023-02-23T04:33:05;101226.75;;;6.24;91.60
53647;BME280;39550;52.230;5.194;2023-02-23T04:35:31;101220.50;;;6.16;92.41
53647;BME280;39550;52.230;5.194;2023-02-23T04:37:57;101223.06;;;6.16;92.02
53647;BME280;39550;52.230;5.194;2023-02-23T04:40:23;101218.00;;;6.17;92.10
53647;BME280;39550;52.230;5.194;2023-02-23T04:42:48;101216.88;;;6.09;91.58
53647;BME280;39550;52.230;5.194;2023-02-23T04:45:13;101244.69;;;6.25;92.13
53647;BME280;39550;52.230;5.194;2023-02-23T04:47:39;101229.94;;;6.17;92.26
53647;BME280;39550;52.230;5.194;2023-02-23T04:50:05;101251.56;;;6.26;91.78
53647;BME280;39550;52.230;5.194;2023-02-23T04:52:30;101189.03;;;5.92;92.06
53647;BME280;39550;52.230;5.194;2023-02-23T04:54:56;101233.38;;;6.19;92.09
53647;BME280;39550;52.230;5.194;2023-02-23T04:57:21;101249.78;;;6.24;92.36
53647;BME280;39550;52.230;5.194;2023-02-23T04:59:46;101248.06;;;6.24;91.77
53647;BME280;39550;52.230;5.194;2023-02-23T05:02:12;101243.63;;;6.19;92.17
53647;BME280;39550;52.230;5.194;2023-02-23T05:04:37;101205.47;;;5.99;91.94
53647;BME280;39550;52.230;5.194;2023-02-23T05:07:03;101254.16;;;6.28;91.85
53647;BME280;39550;52.230;5.194;2023-02-23T05:09:29;101252.41;;;6.27;92.19
53647;BME280;39550;52.230;5.194;2023-02-23T05:11:55;101217.66;;;6.06;92.14
53647;BME280;39550;52.230;5.194;2023-02-23T05:14:21;101253.31;;;6.27;92.03
53647;BME280;39550;52.230;5.194;2023-02-23T05:16:46;101209.78;;;6.00;91.88
53647;BME280;39550;52.230;5.194;2023-02-23T05:19:12;101260.09;;;6.27;92.29
53647;BME280;39550;52.230;5.194;2023-02-23T05:21:37;101240.16;;;6.17;92.15
53647;BME280;39550;52.230;5.194;2023-02-23T05:24:04;101259.19;;;6.25;92.23
53647;BME280;39550;52.230;5.194;2023-02-23T05:26:29;101266.16;;;6.29;92.39
53647;BME280;39550;52.230;5.194;2023-02-23T05:28:54;101239.94;;;6.10;91.89
53647;BME280;39550;52.230;5.194;2023-02-23T05:31:22;101243.44;;;6.12;91.52
53647;BME280;39550;52.230;5.194;2023-02-23T05:33:47;101266.09;;;6.27;91.96
53647;BME280;39550;52.230;5.194;2023-02-23T05:36:15;101264.28;;;6.23;91.66
53647;BME280;39550;52.230;5.194;2023-02-23T05:38:42;101254.72;;;6.18;91.59
53647;BME280;39550;52.230;5.194;2023-02-23T05:41:10;101240.78;;;6.09;91.69
53647;BME280;39550;52.230;5.194;2023-02-23T05:43:36;101226.84;;;6.00;91.83
53647;BME280;39550;52.230;5.194;2023-02-23T05:46:08;101251.31;;;6.19;92.12
53647;BME280;39550;52.230;5.194;2023-02-23T05:48:34;101243.31;;;6.08;92.25
53647;BME280;39550;52.230;5.194;2023-02-23T05:51:01;101219.88;;;5.97;92.08
53647;BME280;39550;52.230;5.194;2023-02-23T05:53:26;101271.19;;;6.26;92.37
53647;BME280;39550;52.230;5.194;2023-02-23T05:55:52;101270.34;;;6.27;91.86
53647;BME280;39550;52.230;5.194;2023-02-23T05:58:17;101239.84;;;6.07;92.21
53647;BME280;39550;52.230;5.194;2023-02-23T06:00:43;101273.63;;;6.23;92.30
53647;BME280;39550;52.230;5.194;2023-02-23T06:03:08;101283.13;;;6.27;91.76
53647;BME280;39550;52.230;5.194;2023-02-23T06:05:33;101250.19;;;6.10;92.30
53647;BME280;39550;52.230;5.194;2023-02-23T06:07:59;101267.56;;;6.19;91.80
53647;BME280;39550;52.230;5.194;2023-02-23T06:10:24;101276.22;;;6.24;92.06
53647;BME280;39550;52.230;5.194;2023-02-23T06:12:52;101267.50;;;6.18;92.44
53647;BME280;39550;52.230;5.194;2023-02-23T06:15:17;101266.66;;;6.19;91.85
53647;BME280;39550;52.230;5.194;2023-02-23T06:17:43;101215.41;;;5.90;92.02
53647;BME280;39550;52.230;5.194;2023-02-23T06:20:09;101269.22;;;6.19;92.18
53647;BME280;39550;52.230;5.194;2023-02-23T06:22:34;101257.03;;;6.11;92.17
53647;BME280;39550;52.230;5.194;2023-02-23T06:24:59;101259.59;;;6.11;92.05
53647;BME280;39550;52.230;5.194;2023-02-23T06:27:28;101286.41;;;6.23;91.98
53647;BME280;39550;52.230;5.194;2023-02-23T06:29:54;101283.81;;;6.21;91.87
53647;BME280;39550;52.230;5.194;2023-02-23T06:32:19;101260.22;;;6.04;91.86
53647;BME280;39550;52.230;5.194;2023-02-23T06:34:44;101281.00;;;6.13;92.29
53647;BME280;39550;52.230;5.194;2023-02-23T06:37:09;101292.25;;;6.19;91.81
53647;BME280;39550;52.230;5.194;2023-02-23T06:39:36;101219.97;;;5.74;92.22
53647;BME280;39550;52.230;5.194;2023-02-23T06:42:01;101303.41;;;6.21;92.13
53647;BME280;39550;52.230;5.194;2023-02-23T06:44:26;101280.78;;;6.07;91.85
53647;BME280;39550;52.230;5.194;2023-02-23T06:46:52;101311.06;;;6.19;92.35
53647;BME280;39550;52.230;5.194;2023-02-23T06:49:17;101312.94;;;6.25;92.29
53647;BME280;39550;52.230;5.194;2023-02-23T06:51:42;101254.34;;;5.83;91.80
53647;BME280;39550;52.230;5.194;2023-02-23T06:54:08;101217.94;;;5.64;91.99
53647;BME280;39550;52.230;5.194;2023-02-23T06:56:33;101321.34;;;6.21;92.32
53647;BME280;39550;52.230;5.194;2023-02-23T06:58:58;101305.75;;;6.14;91.93
53647;BME280;39550;52.230;5.194;2023-02-23T07:01:24;101324.00;;;6.24;92.29
53647;BME280;39550;52.230;5.194;2023-02-23T07:03:52;101276.97;;;5.96;92.25
53647;BME280;39550;52.230;5.194;2023-02-23T07:06:17;101306.28;;;6.04;91.78
53647;BME280;39550;52.230;5.194;2023-02-23T07:14:41;101339.91;;;6.15;92.22
53647;BME280;39550;52.230;5.194;2023-02-23T07:17:06;101325.22;;;6.09;92.17
53647;BME280;39550;52.230;5.194;2023-02-23T07:19:32;101347.97;;;6.26;92.06
53647;BME280;39550;52.230;5.194;2023-02-23T07:21:57;101353.72;;;6.20;91.90
53647;BME280;39550;52.230;5.194;2023-02-23T07:24:23;101330.34;;;6.09;92.04
53647;BME280;39550;52.230;5.194;2023-02-23T07:26:48;101274.50;;;5.73;92.34
53647;BME280;39550;52.230;5.194;2023-02-23T07:29:14;101371.91;;;6.28;92.39
53647;BME280;39550;52.230;5.194;2023-02-23T07:31:40;101343.13;;;6.09;92.24
53647;BME280;39550;52.230;5.194;2023-02-23T07:34:06;101348.41;;;6.14;92.45
53647;BME280;39550;52.230;5.194;2023-02-23T07:36:32;101375.28;;;6.27;91.95
53647;BME280;39550;52.230;5.194;2023-02-23T07:38:57;101354.38;;;6.14;91.96
53647;BME280;39550;52.230;5.194;2023-02-23T07:41:23;101377.03;;;6.28;92.51
53647;BME280;39550;52.230;5.194;2023-02-23T07:43:49;101374.28;;;6.22;92.16
53647;BME280;39550;52.230;5.194;2023-02-23T07:46:14;101377.69;;;6.22;92.15
53647;BME280;39550;52.230;5.194;2023-02-23T07:48:41;101388.06;;;6.27;92.35
53647;BME280;39550;52.230;5.194;2023-02-23T07:51:17;101334.88;;;5.94;92.16
53647;BME280;39550;52.230;5.194;2023-02-23T07:53:43;101362.91;;;6.13;92.16
53647;BME280;39550;52.230;5.194;2023-02-23T07:56:09;101392.38;;;6.28;92.22
53647;BME280;39550;52.230;5.194;2023-02-23T07:58:36;101392.38;;;6.28;91.77
53647;BME280;39550;52.230;5.194;2023-02-23T08:01:02;101392.47;;;6.31;92.10
53647;BME280;39550;52.230;5.194;2023-02-23T08:03:28;101374.13;;;6.19;91.32
53647;BME280;39550;52.230;5.194;2023-02-23T08:05:53;101374.13;;;6.19;91.66
53647;BME280;39550;52.230;5.194;2023-02-23T08:08:18;101388.06;;;6.27;91.84
53647;BME280;39550;52.230;5.194;2023-02-23T08:10:44;101385.31;;;6.21;91.93
53647;BME280;39550;52.230;5.194;2023-02-23T08:13:09;101392.28;;;6.25;91.70
53647;BME280;39550;52.230;5.194;2023-02-23T08:15:36;101404.38;;;6.29;92.07
53647;BME280;39550;52.230;5.194;2023-02-23T08:18:01;101390.44;;;6.21;91.85
53647;BME280;39550;52.230;5.194;2023-02-23T08:20:26;101370.34;;;6.07;91.83
53647;BME280;39550;52.230;5.194;2023-02-23T08:22:56;101370.34;;;6.07;91.43
53647;BME280;39550;52.230;5.194;2023-02-23T08:25:22;101367.59;;;6.01;91.28
53647;BME280;39550;52.230;5.194;2023-02-23T08:27:48;101358.75;;;5.93;91.49
53647;BME280;39550;52.230;5.194;2023-02-23T08:30:16;101386.63;;;6.09;91.80
53647;BME280;39550;52.230;5.194;2023-02-23T08:32:43;101378.91;;;6.08;91.66
53647;BME280;39550;52.230;5.194;2023-02-23T08:35:09;101364.75;;;5.95;91.56
53647;BME280;39550;52.230;5.194;2023-02-23T08:37:34;101424.84;;;6.29;91.42
53647;BME280;39550;52.230;5.194;2023-02-23T08:40:00;101367.31;;;5.95;92.09
53647;BME280;39550;52.230;5.194;2023-02-23T08:42:26;101379.44;;;5.99;91.82
53647;BME280;39550;52.230;5.194;2023-02-23T08:44:51;101397.78;;;6.11;91.85
53647;BME280;39550;52.230;5.194;2023-02-23T08:47:17;101370.69;;;5.94;91.50
53647;BME280;39550;52.230;5.194;2023-02-23T08:49:46;101374.31;;;5.99;91.77
53647;BME280;39550;52.230;5.194;2023-02-23T08:52:11;101432.47;;;6.27;91.52
53647;BME280;39550;52.230;5.194;2023-02-23T08:54:36;101385.53;;;6.03;91.30
53647;BME280;39550;52.230;5.194;2023-02-23T08:57:02;101413.38;;;6.18;91.42
53647;BME280;39550;52.230;5.194;2023-02-23T08:59:27;101417.78;;;6.22;91.43
53647;BME280;39550;52.230;5.194;2023-02-23T09:01:52;101419.50;;;6.23;91.37
53647;BME280;39550;52.230;5.194;2023-02-23T09:04:18;101406.34;;;6.12;91.57
53647;BME280;39550;52.230;5.194;2023-02-23T09:06:44;101396.53;;;6.00;91.35
53647;BME280;39550;52.230;5.194;2023-02-23T09:09:11;101397.28;;;5.97;91.12
53647;BME280;39550;52.230;5.194;2023-02-23T09:11:37;101417.34;;;6.09;91.93
53647;BME280;39550;52.230;5.194;2023-02-23T09:14:02;101440.31;;;6.32;91.40
53647;BME280;39550;52.230;5.194;2023-02-23T09:16:27;101438.34;;;6.25;91.75
53647;BME280;39550;52.230;5.194;2023-02-23T09:18:53;101433.00;;;6.19;91.25
53647;BME280;39550;52.230;5.194;2023-02-23T09:21:20;101402.47;;;5.99;90.85
53647;BME280;39550;52.230;5.194;2023-02-23T09:23:49;101460.88;;;6.35;91.90
53647;BME280;39550;52.230;5.194;2023-02-23T09:26:17;101431.16;;;6.14;91.62
53647;BME280;39550;52.230;5.194;2023-02-23T09:28:43;101411.88;;;6.00;91.87
53647;BME280;39550;52.230;5.194;2023-02-23T09:31:14;101406.63;;;5.97;91.93
53647;BME280;39550;52.230;5.194;2023-02-23T09:33:40;101448.47;;;6.22;91.61
53647;BME280;39550;52.230;5.194;2023-02-23T09:36:09;101413.63;;;6.01;91.52
53647;BME280;39550;52.230;5.194;2023-02-23T09:38:37;101433.66;;;6.13;91.80
53647;BME280;39550;52.230;5.194;2023-02-23T09:41:08;101417.06;;;6.02;90.89
53647;BME280;39550;52.230;5.194;2023-02-23T09:43:54;101464.97;;;6.30;91.51
53647;BME280;39550;52.230;5.194;2023-02-23T09:46:47;101476.34;;;6.38;91.84
53647;BME280;39550;52.230;5.194;2023-02-23T09:49:17;101469.31;;;6.33;91.32
53647;BME280;39550;52.230;5.194;2023-02-23T09:51:53;101426.53;;;6.04;91.57
53647;BME280;39550;52.230;5.194;2023-02-23T09:54:23;101449.25;;;6.19;91.88
53647;BME280;39550;52.230;5.194;2023-02-23T09:56:51;101442.47;;;6.21;91.09
53647;BME280;39550;52.230;5.194;2023-02-23T09:59:20;101415.34;;;6.02;91.85
53647;BME280;39550;52.230;5.194;2023-02-23T10:04:48;101448.34;;;6.19;91.20
53647;BME280;39550;52.230;5.194;2023-02-23T10:09:47;101492.63;;;6.40;91.80
53647;BME280;39550;52.230;5.194;2023-02-23T10:15:35;101491.94;;;6.44;91.39
53647;BME280;39550;52.230;5.194;2023-02-23T10:18:14;101487.66;;;6.45;90.80
53647;BME280;39550;52.230;5.194;2023-02-23T10:23:14;101473.72;;;6.37;91.16
53647;BME280;39550;52.230;5.194;2023-02-23T10:25:44;101493.69;;;6.45;90.67
53647;BME280;39550;52.230;5.194;2023-02-23T10:28:18;101491.69;;;6.38;90.96
53647;BME280;39550;52.230;5.194;2023-02-23T10:30:45;101470.91;;;6.29;91.01
53647;BME280;39550;52.230;5.194;2023-02-23T10:33:31;101491.81;;;6.41;91.18
53647;BME280;39550;52.230;5.194;2023-02-23T10:36:01;101483.97;;;6.37;90.86
53647;BME280;39550;52.230;5.194;2023-02-23T10:38:34;101460.44;;;6.23;90.79
53647;BME280;39550;52.230;5.194;2023-02-23T10:40:59;101468.00;;;6.20;91.41
53647;BME280;39550;52.230;5.194;2023-02-23T10:43:28;101473.03;;;6.17;91.71
53647;BME280;39550;52.230;5.194;2023-02-23T10:46:01;101456.44;;;6.05;91.37
53647;BME280;39550;52.230;5.194;2023-02-23T10:48:34;101491.28;;;6.26;91.42
53647;BME280;39550;52.230;5.194;2023-02-23T10:51:06;101445.91;;;5.97;91.16
53647;BME280;39550;52.230;5.194;2023-02-23T10:53:35;101503.47;;;6.33;90.93
53647;BME280;39550;52.230;5.194;2023-02-23T10:56:09;101477.44;;;6.21;91.24
53647;BME280;39550;52.230;5.194;2023-02-23T10:58:46;101477.44;;;6.21;91.63
53647;BME280;39550;52.230;5.194;2023-02-23T11:01:14;101502.69;;;6.34;91.63
53647;BME280;39550;52.230;5.194;2023-02-23T11:03:49;101443.44;;;6.01;91.79
53647;BME280;39550;52.230;5.194;2023-02-23T11:06:31;101489.75;;;6.31;91.67
53647;BME280;39550;52.230;5.194;2023-02-23T11:08:57;101452.22;;;6.07;91.47
53647;BME280;39550;52.230;5.194;2023-02-23T11:11:27;101482.06;;;6.31;91.11
53647;BME280;39550;52.230;5.194;2023-02-23T11:13:54;101454.06;;;6.11;91.35
53647;BME280;39550;52.230;5.194;2023-02-23T11:16:23;101460.00;;;6.10;90.90
53647;BME280;39550;52.230;5.194;2023-02-23T11:18:58;101520.19;;;6.47;91.11
53647;BME280;39550;52.230;5.194;2023-02-23T11:23:56;101481.63;;;6.19;91.19
53647;BME280;39550;52.230;5.194;2023-02-23T11:26:28;101475.50;;;6.13;91.35
53647;BME280;39550;52.230;5.194;2023-02-23T11:29:02;101515.56;;;6.37;91.34
53647;BME280;39550;52.230;5.194;2023-02-23T11:31:32;101491.28;;;6.26;90.79
53647;BME280;39550;52.230;5.194;2023-02-23T11:33:59;101500.72;;;6.28;91.11
53647;BME280;39550;52.230;5.194;2023-02-23T11:36:28;101473.09;;;6.18;90.70
53647;BME280;39550;52.230;5.194;2023-02-23T11:41:38;101482.78;;;6.27;90.55
53647;BME280;39550;52.230;5.194;2023-02-23T11:44:03;101470.56;;;6.20;90.58
53647;BME280;39550;52.230;5.194;2023-02-23T11:46:31;101472.31;;;6.21;91.45
53647;BME280;39550;52.230;5.194;2023-02-23T11:48:59;101523.91;;;6.56;91.36
53647;BME280;39550;52.230;5.194;2023-02-23T11:51:29;101483.00;;;6.33;91.06
53647;BME280;39550;52.230;5.194;2023-02-23T11:53:56;101462.09;;;6.21;90.69
53647;BME280;39550;52.230;5.194;2023-02-23T11:56:23;101468.88;;;6.20;90.59
53647;BME280;39550;52.230;5.194;2023-02-23T11:58:53;101473.25;;;6.23;90.26
53647;BME280;39550;52.230;5.194;2023-02-23T12:01:23;101469.06;;;6.25;90.47
53647;BME280;39550;52.230;5.194;2023-02-23T12:03:58;101475.03;;;6.25;90.91
53647;BME280;39550;52.230;5.194;2023-02-23T12:06:44;101516.88;;;6.50;91.21
53647;BME280;39550;52.230;5.194;2023-02-23T12:09:30;101523.91;;;6.56;91.07
53647;BME280;39550;52.230;5.194;2023-02-23T12:12:04;101464.47;;;6.16;90.33
53647;BME280;39550;52.230;5.194;2023-02-23T12:17:26;101493.13;;;6.30;90.65
53647;BME280;39550;52.230;5.194;2023-02-23T12:20:08;101472.44;;;6.24;90.47
53647;BME280;39550;52.230;5.194;2023-02-23T12:22:47;101481.16;;;6.29;90.41
53647;BME280;39550;52.230;5.194;2023-02-23T12:25:44;101474.06;;;6.22;90.52
53647;BME280;39550;52.230;5.194;2023-02-23T12:28:32;101474.94;;;6.22;90.92
53647;BME280;39550;52.230;5.194;2023-02-23T12:31:24;101504.78;;;6.46;91.43
53647;BME280;39550;52.230;5.194;2023-02-23T12:33:58;101476.22;;;6.35;90.29
53647;BME280;39550;52.230;5.194;2023-02-23T12:36:26;101518.16;;;6.63;90.24
53647;BME280;39550;52.230;5.194;2023-02-23T12:41:42;101494.53;;;6.46;90.53
53647;BME280;39550;52.230;5.194;2023-02-23T12:44:28;101504.84;;;6.47;91.02
53647;BME280;39550;52.230;5.194;2023-02-23T12:46:59;101470.91;;;6.29;90.01
53647;BME280;39550;52.230;5.194;2023-02-23T12:49:42;101509.84;;;6.44;90.30
53647;BME280;39550;52.230;5.194;2023-02-23T12:52:13;101473.28;;;6.24;91.34
53647;BME280;39550;52.230;5.194;2023-02-23T12:54:42;101461.09;;;6.17;90.73
53647;BME280;39550;52.230;5.194;2023-02-23T13:00:16;101523.19;;;6.60;90.98
53647;BME280;39550;52.230;5.194;2023-02-23T13:05:47;101447.94;;;6.30;90.29
53647;BME280;39550;52.230;5.194;2023-02-23T13:08:20;101509.78;;;6.67;90.42
53647;BME280;39550;52.230;5.194;2023-02-23T13:11:19;101460.56;;;6.26;90.76
53647;BME280;39550;52.230;5.194;2023-02-23T13:14:44;101470.09;;;6.30;90.45
53647;BME280;39550;52.230;5.194;2023-02-23T13:17:32;101445.09;;;6.23;90.31
53647;BME280;39550;52.230;5.194;2023-02-23T13:20:32;101499.22;;;6.58;90.27
53647;BME280;39550;52.230;5.194;2023-02-23T13:23:20;101445.22;;;6.26;90.61
53647;BME280;39550;52.230;5.194;2023-02-23T13:31:03;101473.91;;;6.41;91.07
53647;BME280;39550;52.230;5.194;2023-02-23T13:33:29;101496.34;;;6.48;90.58
53647;BME280;39550;52.230;5.194;2023-02-23T13:36:02;101447.69;;;6.24;90.53
53647;BME280;39550;52.230;5.194;2023-02-23T13:38:35;101513.03;;;6.63;91.12
53647;BME280;39550;52.230;5.194;2023-02-23T13:41:15;101476.22;;;6.35;90.99
53647;BME280;39550;52.230;5.194;2023-02-23T13:43:56;101472.53;;;6.27;90.49
53647;BME280;39550;52.230;5.194;2023-02-23T13:46:30;101484.63;;;6.31;90.84
53647;BME280;39550;52.230;5.194;2023-02-23T13:49:15;101477.78;;;6.30;91.03
53647;BME280;39550;52.230;5.194;2023-02-23T13:51:49;101498.81;;;6.45;90.94
53647;BME280;39550;52.230;5.194;2023-02-23T13:54:26;101471.63;;;6.25;90.78
53647;BME280;39550;52.230;5.194;2023-02-23T13:56:58;101511.09;;;6.56;90.80
53647;BME280;39550;52.230;5.194;2023-02-23T13:59:28;101503.06;;;6.46;90.77
53647;BME280;39550;52.230;5.194;2023-02-23T14:01:54;101498.03;;;6.48;91.04
53647;BME280;39550;52.230;5.194;2023-02-23T14:07:01;101498.66;;;6.42;90.37
53647;BME280;39550;52.230;5.194;2023-02-23T14:09:33;101491.81;;;6.41;90.60
53647;BME280;39550;52.230;5.194;2023-02-23T14:12:05;101530.41;;;6.70;90.71
53647;BME280;39550;52.230;5.194;2023-02-23T14:14:41;101480.03;;;6.46;90.13
53647;BME280;39550;52.230;5.194;2023-02-23T14:17:09;101532.13;;;6.71;90.14
53647;BME280;39550;52.230;5.194;2023-02-23T14:19:37;101494.69;;;6.51;90.54
53647;BME280;39550;52.230;5.194;2023-02-23T14:22:08;101535.81;;;6.79;89.52
53647;BME280;39550;52.230;5.194;2023-02-23T14:24:35;101519.69;;;6.82;89.55
53647;BME280;39550;52.230;5.194;2023-02-23T14:29:43;101520.25;;;6.73;90.27
53647;BME280;39550;52.230;5.194;2023-02-23T14:37:36;101529.31;;;6.63;91.17
53647;BME280;39550;52.230;5.194;2023-02-23T14:40:20;101533.53;;;6.63;90.64
53647;BME280;39550;52.230;5.194;2023-02-23T14:42:51;101529.97;;;6.58;91.26
53647;BME280;39550;52.230;5.194;2023-02-23T14:45:23;101535.19;;;6.61;91.06
53647;BME280;39550;52.230;5.194;2023-02-23T14:47:52;101537.75;;;6.61;90.72
53647;BME280;39550;52.230;5.194;2023-02-23T14:50:33;101539.50;;;6.62;91.10